sensor_id;sensor_type;location;lat;lon;timestamp;P1;durP1;ratioP1;P2;durP2;ratioP2
71166;SDS011;58864;45.928;20.078;2023-05-10T00:00:46;8.33;;;4.00;;
71166;SDS011;58864;45.928;20.078;2023-05-10T00:03:11;7.50;;;3.83;;
71166;SDS011;58864;45.928;20.078;2023-05-10T00:05:35;9.47;;;3.80;;
71166;SDS011;58864;45.928;20.078;2023-05-10T00:08:00;8.20;;;3.53;;
71166;SDS011;58864;45.928;20.078;2023-05-10T00:10:24;9.67;;;4.10;;
71166;SDS011;58864;45.928;20.078;2023-05-10T00:12:49;8.83;;;4.30;;
71166;SDS011;58864;45.928;20.078;2023-05-10T00:15:13;9.13;;;3.83;;
71166;SDS011;58864;45.928;20.078;2023-05-10T00:17:38;7.70;;;4.10;;
71166;SDS011;58864;45.928;20.078;2023-05-10T00:20:04;8.95;;;3.97;;
71166;SDS011;58864;45.928;20.078;2023-05-10T00:22:29;10.60;;;4.78;;
71166;SDS011;58864;45.928;20.078;2023-05-10T00:24:53;10.80;;;4.40;;
71166;SDS011;58864;45.928;20.078;2023-05-10T00:27:17;7.77;;;4.20;;
71166;SDS011;58864;45.928;20.078;2023-05-10T00:29:42;8.03;;;4.03;;
71166;SDS011;58864;45.928;20.078;2023-05-10T00:32:06;7.63;;;3.67;;
71166;SDS011;58864;45.928;20.078;2023-05-10T00:34:31;8.98;;;4.30;;
71166;SDS011;58864;45.928;20.078;2023-05-10T00:36:55;7.07;;;3.43;;
71166;SDS011;58864;45.928;20.078;2023-05-10T00:39:20;8.27;;;3.20;;
71166;SDS011;58864;45.928;20.078;2023-05-10T00:41:44;5.83;;;2.83;;
71166;SDS011;58864;45.928;20.078;2023-05-10T00:44:09;6.73;;;3.10;;
71166;SDS011;58864;45.928;20.078;2023-05-10T00:46:33;9.68;;;4.13;;
71166;SDS011;58864;45.928;20.078;2023-05-10T00:48:58;7.03;;;3.67;;
71166;SDS011;58864;45.928;20.078;2023-05-10T00:51:23;6.30;;;3.15;;
71166;SDS011;58864;45.928;20.078;2023-05-10T00:53:48;8.87;;;4.07;;
71166;SDS011;58864;45.928;20.078;2023-05-10T00:56:12;7.20;;;3.35;;
71166;SDS011;58864;45.928;20.078;2023-05-10T00:58:37;6.33;;;2.97;;
71166;SDS011;58864;45.928;20.078;2023-05-10T01:01:02;6.53;;;3.40;;
71166;SDS011;58864;45.928;20.078;2023-05-10T01:03:27;8.50;;;3.60;;
71166;SDS011;58864;45.928;20.078;2023-05-10T01:05:52;8.90;;;4.63;;
71166;SDS011;58864;45.928;20.078;2023-05-10T01:08:17;8.38;;;3.80;;
71166;SDS011;58864;45.928;20.078;2023-05-10T01:10:42;6.93;;;3.65;;
71166;SDS011;58864;45.928;20.078;2023-05-10T01:13:07;7.70;;;3.97;;
71166;SDS011;58864;45.928;20.078;2023-05-10T01:15:31;8.90;;;4.18;;
71166;SDS011;58864;45.928;20.078;2023-05-10T01:17:56;9.70;;;3.93;;
71166;SDS011;58864;45.928;20.078;2023-05-10T01:20:20;8.70;;;4.20;;
71166;SDS011;58864;45.928;20.078;2023-05-10T01:35:41;9.43;;;4.33;;
71166;SDS011;58864;45.928;20.078;2023-05-10T01:43:28;10.10;;;5.00;;
71166;SDS011;58864;45.928;20.078;2023-05-10T01:46:01;10.27;;;4.40;;
71166;SDS011;58864;45.928;20.078;2023-05-10T01:48:34;10.80;;;5.28;;
71166;SDS011;58864;45.928;20.078;2023-05-10T01:50:58;9.20;;;4.70;;
71166;SDS011;58864;45.928;20.078;2023-05-10T01:53:23;9.27;;;5.05;;
71166;SDS011;58864;45.928;20.078;2023-05-10T01:55:49;8.80;;;4.50;;
71166;SDS011;58864;45.928;20.078;2023-05-10T01:58:21;9.82;;;4.68;;
71166;SDS011;58864;45.928;20.078;2023-05-10T02:00:47;9.35;;;4.63;;
71166;SDS011;58864;45.928;20.078;2023-05-10T02:03:13;10.98;;;5.28;;
71166;SDS011;58864;45.928;20.078;2023-05-10T02:05:39;9.23;;;5.18;;
71166;SDS011;58864;45.928;20.078;2023-05-10T02:08:06;9.30;;;4.73;;
71166;SDS011;58864;45.928;20.078;2023-05-10T02:10:31;9.82;;;5.03;;
71166;SDS011;58864;45.928;20.078;2023-05-10T02:12:58;9.15;;;4.78;;
71166;SDS011;58864;45.928;20.078;2023-05-10T02:15:23;9.15;;;5.05;;
71166;SDS011;58864;45.928;20.078;2023-05-10T02:17:48;9.50;;;5.18;;
71166;SDS011;58864;45.928;20.078;2023-05-10T02:20:13;9.60;;;5.27;;
71166;SDS011;58864;45.928;20.078;2023-05-10T02:22:39;9.80;;;5.22;;
71166;SDS011;58864;45.928;20.078;2023-05-10T02:25:04;10.90;;;5.30;;
71166;SDS011;58864;45.928;20.078;2023-05-10T02:27:30;13.07;;;5.95;;
71166;SDS011;58864;45.928;20.078;2023-05-10T02:29:55;10.87;;;5.73;;
71166;SDS011;58864;45.928;20.078;2023-05-10T02:32:21;10.57;;;5.35;;
71166;SDS011;58864;45.928;20.078;2023-05-10T02:34:46;9.32;;;5.18;;
71166;SDS011;58864;45.928;20.078;2023-05-10T02:37:15;9.27;;;5.07;;
71166;SDS011;58864;45.928;20.078;2023-05-10T02:39:42;9.38;;;4.95;;
71166;SDS011;58864;45.928;20.078;2023-05-10T02:42:11;12.38;;;5.65;;
71166;SDS011;58864;45.928;20.078;2023-05-10T02:44:40;11.65;;;5.28;;
71166;SDS011;58864;45.928;20.078;2023-05-10T02:47:05;9.50;;;4.97;;
71166;SDS011;58864;45.928;20.078;2023-05-10T02:49:30;11.50;;;6.17;;
71166;SDS011;58864;45.928;20.078;2023-05-10T02:51:56;10.30;;;5.37;;
71166;SDS011;58864;45.928;20.078;2023-05-10T02:54:24;9.18;;;5.22;;
71166;SDS011;58864;45.928;20.078;2023-05-10T02:56:56;10.88;;;5.82;;
71166;SDS011;58864;45.928;20.078;2023-05-10T02:59:22;11.48;;;5.72;;
71166;SDS011;58864;45.928;20.078;2023-05-10T03:01:46;12.40;;;6.07;;
71166;SDS011;58864;45.928;20.078;2023-05-10T03:04:10;12.90;;;6.40;;
71166;SDS011;58864;45.928;20.078;2023-05-10T03:06:35;11.20;;;5.57;;
71166;SDS011;58864;45.928;20.078;2023-05-10T03:08:59;11.47;;;6.23;;
71166;SDS011;58864;45.928;20.078;2023-05-10T03:14:33;12.70;;;6.57;;
71166;SDS011;58864;45.928;20.078;2023-05-10T03:17:23;13.18;;;6.35;;
71166;SDS011;58864;45.928;20.078;2023-05-10T03:19:57;13.77;;;7.05;;
71166;SDS011;58864;45.928;20.078;2023-05-10T03:22:38;12.93;;;6.70;;
71166;SDS011;58864;45.928;20.078;2023-05-10T03:25:05;15.85;;;7.70;;
71166;SDS011;58864;45.928;20.078;2023-05-10T03:27:31;14.32;;;7.75;;
71166;SDS011;58864;45.928;20.078;2023-05-10T03:29:55;14.45;;;7.15;;
71166;SDS011;58864;45.928;20.078;2023-05-10T03:32:21;17.23;;;7.87;;
71166;SDS011;58864;45.928;20.078;2023-05-10T03:34:45;17.40;;;8.68;;
71166;SDS011;58864;45.928;20.078;2023-05-10T03:37:09;15.37;;;8.03;;
71166;SDS011;58864;45.928;20.078;2023-05-10T03:39:34;14.93;;;7.40;;
71166;SDS011;58864;45.928;20.078;2023-05-10T03:41:58;14.73;;;7.50;;
71166;SDS011;58864;45.928;20.078;2023-05-10T03:44:23;14.03;;;7.63;;
71166;SDS011;58864;45.928;20.078;2023-05-10T03:46:47;14.83;;;7.70;;
71166;SDS011;58864;45.928;20.078;2023-05-10T03:49:12;16.42;;;7.15;;
71166;SDS011;58864;45.928;20.078;2023-05-10T03:51:37;16.03;;;7.40;;
71166;SDS011;58864;45.928;20.078;2023-05-10T03:54:01;14.15;;;6.88;;
71166;SDS011;58864;45.928;20.078;2023-05-10T03:56:26;14.87;;;7.13;;
71166;SDS011;58864;45.928;20.078;2023-05-10T03:58:50;15.73;;;6.93;;
71166;SDS011;58864;45.928;20.078;2023-05-10T04:01:15;13.83;;;7.17;;
71166;SDS011;58864;45.928;20.078;2023-05-10T04:03:39;13.00;;;6.65;;
71166;SDS011;58864;45.928;20.078;2023-05-10T04:06:04;13.20;;;6.20;;
71166;SDS011;58864;45.928;20.078;2023-05-10T04:08:29;13.10;;;6.75;;
71166;SDS011;58864;45.928;20.078;2023-05-10T04:10:53;14.43;;;7.10;;
71166;SDS011;58864;45.928;20.078;2023-05-10T04:13:18;12.97;;;6.30;;
71166;SDS011;58864;45.928;20.078;2023-05-10T04:15:43;12.70;;;6.07;;
71166;SDS011;58864;45.928;20.078;2023-05-10T04:18:07;12.35;;;6.10;;
71166;SDS011;58864;45.928;20.078;2023-05-10T04:20:32;13.17;;;6.30;;
71166;SDS011;58864;45.928;20.078;2023-05-10T04:22:57;11.75;;;6.05;;
71166;SDS011;58864;45.928;20.078;2023-05-10T04:25:21;13.40;;;5.60;;
71166;SDS011;58864;45.928;20.078;2023-05-10T04:27:46;10.55;;;5.70;;
71166;SDS011;58864;45.928;20.078;2023-05-10T04:30:10;11.43;;;5.27;;
71166;SDS011;58864;45.928;20.078;2023-05-10T04:32:35;11.20;;;5.43;;
71166;SDS011;58864;45.928;20.078;2023-05-10T04:35:00;10.07;;;5.40;;
71166;SDS011;58864;45.928;20.078;2023-05-10T04:37:26;10.80;;;5.47;;
71166;SDS011;58864;45.928;20.078;2023-05-10T04:39:51;9.83;;;4.87;;
71166;SDS011;58864;45.928;20.078;2023-05-10T04:42:15;11.20;;;5.10;;
71166;SDS011;58864;45.928;20.078;2023-05-10T04:44:40;9.20;;;4.85;;
71166;SDS011;58864;45.928;20.078;2023-05-10T04:47:04;10.20;;;5.20;;
71166;SDS011;58864;45.928;20.078;2023-05-10T04:49:29;11.03;;;4.90;;
71166;SDS011;58864;45.928;20.078;2023-05-10T04:51:54;13.55;;;4.53;;
71166;SDS011;58864;45.928;20.078;2023-05-10T04:54:18;8.57;;;4.40;;
71166;SDS011;58864;45.928;20.078;2023-05-10T04:56:43;11.52;;;4.80;;
71166;SDS011;58864;45.928;20.078;2023-05-10T04:59:07;9.03;;;4.33;;
71166;SDS011;58864;45.928;20.078;2023-05-10T05:01:31;10.07;;;4.60;;
71166;SDS011;58864;45.928;20.078;2023-05-10T05:03:56;8.17;;;4.03;;
71166;SDS011;58864;45.928;20.078;2023-05-10T05:06:20;9.20;;;4.67;;
71166;SDS011;58864;45.928;20.078;2023-05-10T05:08:45;10.53;;;4.23;;
71166;SDS011;58864;45.928;20.078;2023-05-10T05:11:09;8.23;;;4.10;;
71166;SDS011;58864;45.928;20.078;2023-05-10T05:13:34;7.25;;;3.70;;
71166;SDS011;58864;45.928;20.078;2023-05-10T05:16:00;7.87;;;3.80;;
71166;SDS011;58864;45.928;20.078;2023-05-10T05:18:25;8.52;;;4.38;;
71166;SDS011;58864;45.928;20.078;2023-05-10T05:20:49;7.90;;;3.93;;
71166;SDS011;58864;45.928;20.078;2023-05-10T05:23:14;10.40;;;4.47;;
71166;SDS011;58864;45.928;20.078;2023-05-10T05:25:38;7.57;;;4.03;;
71166;SDS011;58864;45.928;20.078;2023-05-10T05:28:03;7.93;;;4.00;;
71166;SDS011;58864;45.928;20.078;2023-05-10T05:30:28;10.77;;;3.83;;
71166;SDS011;58864;45.928;20.078;2023-05-10T05:32:52;10.03;;;4.30;;
71166;SDS011;58864;45.928;20.078;2023-05-10T05:35:17;9.20;;;4.32;;
71166;SDS011;58864;45.928;20.078;2023-05-10T05:37:42;8.63;;;4.67;;
71166;SDS011;58864;45.928;20.078;2023-05-10T05:40:06;11.70;;;4.18;;
71166;SDS011;58864;45.928;20.078;2023-05-10T05:42:31;7.70;;;4.17;;
71166;SDS011;58864;45.928;20.078;2023-05-10T05:44:56;7.07;;;3.50;;
71166;SDS011;58864;45.928;20.078;2023-05-10T05:47:21;8.57;;;3.92;;
71166;SDS011;58864;45.928;20.078;2023-05-10T05:49:45;9.00;;;3.63;;
71166;SDS011;58864;45.928;20.078;2023-05-10T05:52:10;9.43;;;4.30;;
71166;SDS011;58864;45.928;20.078;2023-05-10T05:54:34;7.97;;;3.70;;
71166;SDS011;58864;45.928;20.078;2023-05-10T05:56:59;7.60;;;3.30;;
71166;SDS011;58864;45.928;20.078;2023-05-10T05:59:24;9.70;;;3.47;;
71166;SDS011;58864;45.928;20.078;2023-05-10T06:01:49;6.97;;;3.40;;
71166;SDS011;58864;45.928;20.078;2023-05-10T06:04:14;7.03;;;3.47;;
71166;SDS011;58864;45.928;20.078;2023-05-10T06:06:38;10.55;;;3.63;;
71166;SDS011;58864;45.928;20.078;2023-05-10T06:09:03;8.10;;;3.30;;
71166;SDS011;58864;45.928;20.078;2023-05-10T06:11:28;6.15;;;3.15;;
71166;SDS011;58864;45.928;20.078;2023-05-10T06:13:52;8.87;;;3.40;;
71166;SDS011;58864;45.928;20.078;2023-05-10T06:16:28;6.97;;;3.38;;
71166;SDS011;58864;45.928;20.078;2023-05-10T06:18:56;7.70;;;3.42;;
71166;SDS011;58864;45.928;20.078;2023-05-10T06:21:20;8.23;;;3.13;;
71166;SDS011;58864;45.928;20.078;2023-05-10T06:23:45;7.60;;;3.30;;
71166;SDS011;58864;45.928;20.078;2023-05-10T06:26:09;7.77;;;3.57;;
71166;SDS011;58864;45.928;20.078;2023-05-10T06:28:34;9.03;;;3.70;;
71166;SDS011;58864;45.928;20.078;2023-05-10T06:30:59;6.80;;;3.50;;
71166;SDS011;58864;45.928;20.078;2023-05-10T06:33:23;8.97;;;3.80;;
71166;SDS011;58864;45.928;20.078;2023-05-10T06:35:48;8.70;;;3.85;;
71166;SDS011;58864;45.928;20.078;2023-05-10T06:38:12;8.07;;;3.17;;
71166;SDS011;58864;45.928;20.078;2023-05-10T06:40:40;9.03;;;4.60;;
71166;SDS011;58864;45.928;20.078;2023-05-10T06:43:05;9.48;;;3.80;;
71166;SDS011;58864;45.928;20.078;2023-05-10T06:45:29;9.97;;;3.93;;
71166;SDS011;58864;45.928;20.078;2023-05-10T06:47:54;6.77;;;3.40;;
71166;SDS011;58864;45.928;20.078;2023-05-10T06:50:18;6.03;;;3.10;;
71166;SDS011;58864;45.928;20.078;2023-05-10T06:52:43;7.63;;;3.30;;
71166;SDS011;58864;45.928;20.078;2023-05-10T06:55:08;7.53;;;3.00;;
71166;SDS011;58864;45.928;20.078;2023-05-10T06:57:32;8.33;;;3.20;;
71166;SDS011;58864;45.928;20.078;2023-05-10T07:00:00;7.97;;;3.20;;
71166;SDS011;58864;45.928;20.078;2023-05-10T07:02:28;6.63;;;3.20;;
71166;SDS011;58864;45.928;20.078;2023-05-10T07:04:52;7.35;;;3.20;;
71166;SDS011;58864;45.928;20.078;2023-05-10T07:07:17;7.43;;;3.20;;
71166;SDS011;58864;45.928;20.078;2023-05-10T07:09:41;9.30;;;3.67;;
71166;SDS011;58864;45.928;20.078;2023-05-10T07:12:06;6.97;;;3.47;;
71166;SDS011;58864;45.928;20.078;2023-05-10T07:14:30;6.97;;;3.15;;
71166;SDS011;58864;45.928;20.078;2023-05-10T07:16:55;7.00;;;3.30;;
71166;SDS011;58864;45.928;20.078;2023-05-10T07:19:19;8.37;;;3.20;;
71166;SDS011;58864;45.928;20.078;2023-05-10T07:21:44;6.23;;;3.00;;
71166;SDS011;58864;45.928;20.078;2023-05-10T07:24:08;6.67;;;3.00;;
71166;SDS011;58864;45.928;20.078;2023-05-10T07:26:33;7.50;;;3.13;;
71166;SDS011;58864;45.928;20.078;2023-05-10T07:28:57;9.07;;;2.77;;
71166;SDS011;58864;45.928;20.078;2023-05-10T07:31:22;8.43;;;3.20;;
71166;SDS011;58864;45.928;20.078;2023-05-10T07:33:46;6.73;;;2.80;;
71166;SDS011;58864;45.928;20.078;2023-05-10T07:36:11;7.30;;;3.07;;
71166;SDS011;58864;45.928;20.078;2023-05-10T07:38:35;7.70;;;2.80;;
71166;SDS011;58864;45.928;20.078;2023-05-10T07:41:00;7.97;;;3.07;;
71166;SDS011;58864;45.928;20.078;2023-05-10T07:43:24;6.33;;;3.10;;
71166;SDS011;58864;45.928;20.078;2023-05-10T07:45:48;8.10;;;3.20;;
71166;SDS011;58864;45.928;20.078;2023-05-10T07:48:13;6.45;;;3.10;;
71166;SDS011;58864;45.928;20.078;2023-05-10T07:50:37;7.10;;;3.07;;
71166;SDS011;58864;45.928;20.078;2023-05-10T07:53:02;7.20;;;3.40;;
71166;SDS011;58864;45.928;20.078;2023-05-10T07:55:26;6.63;;;3.20;;
71166;SDS011;58864;45.928;20.078;2023-05-10T07:57:51;6.57;;;3.40;;
71166;SDS011;58864;45.928;20.078;2023-05-10T08:00:19;6.65;;;2.80;;
71166;SDS011;58864;45.928;20.078;2023-05-10T08:02:44;5.43;;;2.60;;
71166;SDS011;58864;45.928;20.078;2023-05-10T08:05:08;6.90;;;2.67;;
71166;SDS011;58864;45.928;20.078;2023-05-10T08:07:33;5.95;;;2.97;;
71166;SDS011;58864;45.928;20.078;2023-05-10T08:09:58;9.97;;;2.67;;
71166;SDS011;58864;45.928;20.078;2023-05-10T08:12:22;6.10;;;2.78;;
71166;SDS011;58864;45.928;20.078;2023-05-10T08:14:47;11.63;;;3.23;;
71166;SDS011;58864;45.928;20.078;2023-05-10T08:17:11;7.60;;;2.80;;
71166;SDS011;58864;45.928;20.078;2023-05-10T08:19:36;8.03;;;2.80;;
71166;SDS011;58864;45.928;20.078;2023-05-10T08:22:00;6.85;;;2.95;;
71166;SDS011;58864;45.928;20.078;2023-05-10T08:24:24;6.90;;;2.83;;
71166;SDS011;58864;45.928;20.078;2023-05-10T08:26:52;7.68;;;2.72;;
71166;SDS011;58864;45.928;20.078;2023-05-10T08:29:16;6.33;;;3.00;;
71166;SDS011;58864;45.928;20.078;2023-05-10T08:31:41;6.83;;;2.90;;
71166;SDS011;58864;45.928;20.078;2023-05-10T08:34:05;6.80;;;2.90;;
71166;SDS011;58864;45.928;20.078;2023-05-10T08:36:30;5.05;;;2.42;;
71166;SDS011;58864;45.928;20.078;2023-05-10T08:38:56;7.18;;;2.90;;
71166;SDS011;58864;45.928;20.078;2023-05-10T08:41:20;6.10;;;2.67;;
71166;SDS011;58864;45.928;20.078;2023-05-10T08:43:47;6.47;;;2.75;;
71166;SDS011;58864;45.928;20.078;2023-05-10T08:46:17;7.28;;;2.80;;
71166;SDS011;58864;45.928;20.078;2023-05-10T08:48:44;9.82;;;2.80;;
71166;SDS011;58864;45.928;20.078;2023-05-10T08:51:09;7.50;;;2.93;;
71166;SDS011;58864;45.928;20.078;2023-05-10T08:53:41;8.10;;;2.55;;
71166;SDS011;58864;45.928;20.078;2023-05-10T08:56:06;6.80;;;2.88;;
71166;SDS011;58864;45.928;20.078;2023-05-10T08:58:31;8.37;;;2.90;;
71166;SDS011;58864;45.928;20.078;2023-05-10T09:00:56;7.88;;;3.80;;
71166;SDS011;58864;45.928;20.078;2023-05-10T09:03:21;5.57;;;2.75;;
71166;SDS011;58864;45.928;20.078;2023-05-10T09:05:46;7.33;;;2.83;;
71166;SDS011;58864;45.928;20.078;2023-05-10T09:08:11;10.13;;;2.80;;
71166;SDS011;58864;45.928;20.078;2023-05-10T09:10:37;7.72;;;2.90;;
71166;SDS011;58864;45.928;20.078;2023-05-10T09:13:02;6.88;;;2.80;;
71166;SDS011;58864;45.928;20.078;2023-05-10T09:15:27;7.53;;;2.70;;
71166;SDS011;58864;45.928;20.078;2023-05-10T09:17:52;5.73;;;2.60;;
71166;SDS011;58864;45.928;20.078;2023-05-10T09:20:16;4.85;;;2.38;;
71166;SDS011;58864;45.928;20.078;2023-05-10T09:22:44;6.80;;;2.72;;
71166;SDS011;58864;45.928;20.078;2023-05-10T09:25:10;5.83;;;2.60;;
71166;SDS011;58864;45.928;20.078;2023-05-10T09:27:39;10.05;;;2.53;;
71166;SDS011;58864;45.928;20.078;2023-05-10T09:30:05;6.22;;;2.60;;
71166;SDS011;58864;45.928;20.078;2023-05-10T09:32:37;6.37;;;3.10;;
71166;SDS011;58864;45.928;20.078;2023-05-10T09:35:16;6.38;;;2.60;;
71166;SDS011;58864;45.928;20.078;2023-05-10T09:37:43;8.95;;;2.78;;
71166;SDS011;58864;45.928;20.078;2023-05-10T09:40:12;11.98;;;2.60;;
71166;SDS011;58864;45.928;20.078;2023-05-10T09:42:41;7.65;;;2.50;;
71166;SDS011;58864;45.928;20.078;2023-05-10T09:45:07;7.27;;;2.40;;
71166;SDS011;58864;45.928;20.078;2023-05-10T09:47:33;7.72;;;2.35;;
71166;SDS011;58864;45.928;20.078;2023-05-10T09:49:58;5.88;;;2.80;;
71166;SDS011;58864;45.928;20.078;2023-05-10T09:52:27;5.68;;;2.30;;
71166;SDS011;58864;45.928;20.078;2023-05-10T09:54:54;7.97;;;2.37;;
71166;SDS011;58864;45.928;20.078;2023-05-10T09:57:22;8.73;;;2.95;;
71166;SDS011;58864;45.928;20.078;2023-05-10T09:59:49;7.22;;;2.67;;
71166;SDS011;58864;45.928;20.078;2023-05-10T10:02:14;6.20;;;2.57;;
71166;SDS011;58864;45.928;20.078;2023-05-10T10:04:41;6.20;;;2.30;;
71166;SDS011;58864;45.928;20.078;2023-05-10T10:07:06;7.03;;;2.92;;
71166;SDS011;58864;45.928;20.078;2023-05-10T10:09:31;6.63;;;2.67;;
71166;SDS011;58864;45.928;20.078;2023-05-10T10:11:57;6.95;;;2.50;;
71166;SDS011;58864;45.928;20.078;2023-05-10T10:14:22;7.70;;;2.70;;
71166;SDS011;58864;45.928;20.078;2023-05-10T10:16:48;6.50;;;2.13;;
71166;SDS011;58864;45.928;20.078;2023-05-10T10:19:13;8.27;;;2.28;;
71166;SDS011;58864;45.928;20.078;2023-05-10T10:21:39;5.78;;;2.22;;
71166;SDS011;58864;45.928;20.078;2023-05-10T10:24:04;4.90;;;2.00;;
71166;SDS011;58864;45.928;20.078;2023-05-10T10:26:29;9.38;;;2.10;;
71166;SDS011;58864;45.928;20.078;2023-05-10T10:34:28;6.53;;;2.30;;
71166;SDS011;58864;45.928;20.078;2023-05-10T10:36:53;5.70;;;1.50;;
71166;SDS011;58864;45.928;20.078;2023-05-10T10:39:18;5.25;;;1.70;;
71166;SDS011;58864;45.928;20.078;2023-05-10T10:41:51;5.03;;;1.80;;
71166;SDS011;58864;45.928;20.078;2023-05-10T11:02:48;5.75;;;1.75;;
71166;SDS011;58864;45.928;20.078;2023-05-10T11:07:51;5.80;;;1.95;;
71166;SDS011;58864;45.928;20.078;2023-05-10T11:10:23;9.73;;;2.08;;
71166;SDS011;58864;45.928;20.078;2023-05-10T11:13:08;6.47;;;1.75;;
71166;SDS011;58864;45.928;20.078;2023-05-10T11:15:35;7.63;;;2.00;;
71166;SDS011;58864;45.928;20.078;2023-05-10T11:18:17;5.70;;;1.90;;
71166;SDS011;58864;45.928;20.078;2023-05-10T11:20:49;5.63;;;1.77;;
71166;SDS011;58864;45.928;20.078;2023-05-10T11:23:28;4.68;;;1.80;;
71166;SDS011;58864;45.928;20.078;2023-05-10T11:25:54;5.55;;;1.88;;
71166;SDS011;58864;45.928;20.078;2023-05-10T11:28:19;8.57;;;1.90;;
71166;SDS011;58864;45.928;20.078;2023-05-10T11:30:43;5.88;;;1.73;;
71166;SDS011;58864;45.928;20.078;2023-05-10T11:33:09;6.38;;;1.83;;
71166;SDS011;58864;45.928;20.078;2023-05-10T11:35:37;7.75;;;1.92;;
71166;SDS011;58864;45.928;20.078;2023-05-10T11:38:04;4.50;;;1.80;;
71166;SDS011;58864;45.928;20.078;2023-05-10T11:40:30;11.90;;;2.00;;
71166;SDS011;58864;45.928;20.078;2023-05-10T11:42:55;8.20;;;2.08;;
71166;SDS011;58864;45.928;20.078;2023-05-10T11:45:20;5.10;;;1.50;;
71166;SDS011;58864;45.928;20.078;2023-05-10T11:47:48;8.90;;;1.88;;
71166;SDS011;58864;45.928;20.078;2023-05-10T11:50:13;5.18;;;1.60;;
71166;SDS011;58864;45.928;20.078;2023-05-10T11:52:37;6.10;;;1.60;;
71166;SDS011;58864;45.928;20.078;2023-05-10T11:55:01;6.38;;;1.80;;
71166;SDS011;58864;45.928;20.078;2023-05-10T11:57:26;6.63;;;1.73;;
71166;SDS011;58864;45.928;20.078;2023-05-10T11:59:58;4.15;;;1.63;;
71166;SDS011;58864;45.928;20.078;2023-05-10T12:02:23;6.72;;;1.90;;
71166;SDS011;58864;45.928;20.078;2023-05-10T12:04:48;7.00;;;1.50;;
71166;SDS011;58864;45.928;20.078;2023-05-10T12:07:13;5.60;;;1.65;;
71166;SDS011;58864;45.928;20.078;2023-05-10T12:09:43;6.30;;;1.70;;
71166;SDS011;58864;45.928;20.078;2023-05-10T12:12:08;5.82;;;1.73;;
71166;SDS011;58864;45.928;20.078;2023-05-10T12:14:34;9.45;;;1.60;;
71166;SDS011;58864;45.928;20.078;2023-05-10T12:16:59;6.38;;;1.50;;
71166;SDS011;58864;45.928;20.078;2023-05-10T12:19:24;5.30;;;1.40;;
71166;SDS011;58864;45.928;20.078;2023-05-10T12:21:48;9.70;;;1.57;;
71166;SDS011;58864;45.928;20.078;2023-05-10T12:24:12;7.97;;;1.80;;
71166;SDS011;58864;45.928;20.078;2023-05-10T12:26:38;5.55;;;1.58;;
71166;SDS011;58864;45.928;20.078;2023-05-10T12:29:15;6.95;;;1.80;;
71166;SDS011;58864;45.928;20.078;2023-05-10T12:31:57;4.33;;;1.40;;
71166;SDS011;58864;45.928;20.078;2023-05-10T12:34:29;4.60;;;1.42;;
71166;SDS011;58864;45.928;20.078;2023-05-10T12:36:55;5.28;;;1.63;;
71166;SDS011;58864;45.928;20.078;2023-05-10T12:39:19;5.68;;;1.73;;
71166;SDS011;58864;45.928;20.078;2023-05-10T12:41:44;6.63;;;1.43;;
71166;SDS011;58864;45.928;20.078;2023-05-10T12:44:08;3.60;;;1.30;;
71166;SDS011;58864;45.928;20.078;2023-05-10T12:46:33;6.40;;;1.50;;
71166;SDS011;58864;45.928;20.078;2023-05-10T12:48:57;4.20;;;1.50;;
71166;SDS011;58864;45.928;20.078;2023-05-10T12:51:22;4.93;;;1.40;;
71166;SDS011;58864;45.928;20.078;2023-05-10T12:53:46;6.97;;;1.67;;
71166;SDS011;58864;45.928;20.078;2023-05-10T12:56:11;6.15;;;1.70;;
71166;SDS011;58864;45.928;20.078;2023-05-10T12:58:36;6.70;;;1.80;;
71166;SDS011;58864;45.928;20.078;2023-05-10T13:01:00;6.23;;;1.50;;
71166;SDS011;58864;45.928;20.078;2023-05-10T13:03:25;5.90;;;1.57;;
71166;SDS011;58864;45.928;20.078;2023-05-10T13:05:49;4.85;;;1.30;;
71166;SDS011;58864;45.928;20.078;2023-05-10T13:08:14;6.80;;;1.90;;
71166;SDS011;58864;45.928;20.078;2023-05-10T13:10:38;5.20;;;1.50;;
71166;SDS011;58864;45.928;20.078;2023-05-10T13:13:03;6.05;;;1.60;;
71166;SDS011;58864;45.928;20.078;2023-05-10T13:15:27;4.47;;;1.53;;
71166;SDS011;58864;45.928;20.078;2023-05-10T13:17:52;19.60;;;2.20;;
71166;SDS011;58864;45.928;20.078;2023-05-10T13:20:17;4.07;;;1.50;;
71166;SDS011;58864;45.928;20.078;2023-05-10T13:22:45;5.60;;;1.73;;
71166;SDS011;58864;45.928;20.078;2023-05-10T13:25:09;3.93;;;1.43;;
71166;SDS011;58864;45.928;20.078;2023-05-10T13:27:34;5.22;;;1.65;;
71166;SDS011;58864;45.928;20.078;2023-05-10T13:29:59;6.60;;;1.50;;
71166;SDS011;58864;45.928;20.078;2023-05-10T13:32:23;9.05;;;1.65;;
71166;SDS011;58864;45.928;20.078;2023-05-10T13:34:48;4.70;;;1.90;;
71166;SDS011;58864;45.928;20.078;2023-05-10T13:37:12;6.20;;;1.80;;
71166;SDS011;58864;45.928;20.078;2023-05-10T13:39:36;8.23;;;1.80;;
71166;SDS011;58864;45.928;20.078;2023-05-10T13:42:01;5.53;;;1.70;;
71166;SDS011;58864;45.928;20.078;2023-05-10T13:44:26;7.28;;;1.90;;
71166;SDS011;58864;45.928;20.078;2023-05-10T13:46:51;5.10;;;1.63;;
71166;SDS011;58864;45.928;20.078;2023-05-10T13:49:15;5.97;;;1.60;;
71166;SDS011;58864;45.928;20.078;2023-05-10T13:51:40;5.23;;;1.60;;
71166;SDS011;58864;45.928;20.078;2023-05-10T13:54:04;5.40;;;1.60;;
71166;SDS011;58864;45.928;20.078;2023-05-10T13:56:34;7.77;;;1.50;;
71166;SDS011;58864;45.928;20.078;2023-05-10T13:58:59;6.57;;;2.22;;
71166;SDS011;58864;45.928;20.078;2023-05-10T14:01:23;4.53;;;1.50;;
71166;SDS011;58864;45.928;20.078;2023-05-10T14:03:48;6.32;;;1.70;;
71166;SDS011;58864;45.928;20.078;2023-05-10T14:06:12;5.43;;;1.47;;
71166;SDS011;58864;45.928;20.078;2023-05-10T14:08:37;5.17;;;1.30;;
71166;SDS011;58864;45.928;20.078;2023-05-10T14:11:01;6.68;;;1.75;;
71166;SDS011;58864;45.928;20.078;2023-05-10T14:13:26;7.03;;;1.97;;
71166;SDS011;58864;45.928;20.078;2023-05-10T14:15:52;6.45;;;1.40;;
71166;SDS011;58864;45.928;20.078;2023-05-10T14:18:17;5.35;;;1.40;;
71166;SDS011;58864;45.928;20.078;2023-05-10T14:20:42;4.70;;;1.47;;
71166;SDS011;58864;45.928;20.078;2023-05-10T14:23:06;4.57;;;1.63;;
71166;SDS011;58864;45.928;20.078;2023-05-10T14:25:31;4.78;;;1.65;;
71166;SDS011;58864;45.928;20.078;2023-05-10T14:27:55;6.07;;;1.67;;
71166;SDS011;58864;45.928;20.078;2023-05-10T14:30:20;5.55;;;1.30;;
71166;SDS011;58864;45.928;20.078;2023-05-10T14:32:44;5.17;;;1.63;;
71166;SDS011;58864;45.928;20.078;2023-05-10T14:35:09;6.80;;;1.58;;
71166;SDS011;58864;45.928;20.078;2023-05-10T14:37:33;5.93;;;1.80;;
71166;SDS011;58864;45.928;20.078;2023-05-10T14:39:58;11.57;;;2.23;;
71166;SDS011;58864;45.928;20.078;2023-05-10T14:42:22;8.40;;;1.67;;
71166;SDS011;58864;45.928;20.078;2023-05-10T14:44:47;6.87;;;1.80;;
71166;SDS011;58864;45.928;20.078;2023-05-10T14:47:11;6.07;;;1.80;;
71166;SDS011;58864;45.928;20.078;2023-05-10T14:49:36;4.50;;;1.60;;
71166;SDS011;58864;45.928;20.078;2023-05-10T14:52:01;5.35;;;1.90;;
71166;SDS011;58864;45.928;20.078;2023-05-10T14:54:25;4.27;;;1.70;;
71166;SDS011;58864;45.928;20.078;2023-05-10T14:56:50;5.22;;;1.60;;
71166;SDS011;58864;45.928;20.078;2023-05-10T14:59:14;6.33;;;1.77;;
71166;SDS011;58864;45.928;20.078;2023-05-10T15:01:39;6.07;;;1.80;;
71166;SDS011;58864;45.928;20.078;2023-05-10T15:04:05;9.15;;;1.45;;
71166;SDS011;58864;45.928;20.078;2023-05-10T15:06:30;3.95;;;1.40;;
71166;SDS011;58864;45.928;20.078;2023-05-10T15:08:55;6.80;;;1.67;;